sensor_id;sensor_type;location;lat;lon;timestamp;temperature;humidity
10702;DHT22;5402;50.004;8.246;2023-03-15T00:01:57;2.80;99.90
10702;DHT22;5402;50.004;8.246;2023-03-15T00:04:25;2.80;99.90
10702;DHT22;5402;50.004;8.246;2023-03-15T00:06:52;2.70;99.90
10702;DHT22;5402;50.004;8.246;2023-03-15T00:09:19;2.70;99.90
10702;DHT22;5402;50.004;8.246;2023-03-15T00:11:48;2.70;99.90
10702;DHT22;5402;50.004;8.246;2023-03-15T00:14:15;2.60;99.90
10702;DHT22;5402;50.004;8.246;2023-03-15T00:16:42;2.60;99.90
10702;DHT22;5402;50.004;8.246;2023-03-15T00:19:09;2.60;99.90
10702;DHT22;5402;50.004;8.246;2023-03-15T00:21:38;2.60;99.90
10702;DHT22;5402;50.004;8.246;2023-03-15T00:24:08;2.60;99.90
10702;DHT22;5402;50.004;8.246;2023-03-15T00:26:34;2.60;99.90
10702;DHT22;5402;50.004;8.246;2023-03-15T00:29:01;2.60;99.90
10702;DHT22;5402;50.004;8.246;2023-03-15T00:31:28;2.50;99.90
10702;DHT22;5402;50.004;8.246;2023-03-15T00:33:55;2.50;99.90
10702;DHT22;5402;50.004;8.246;2023-03-15T00:36:23;2.50;99.90
10702;DHT22;5402;50.004;8.246;2023-03-15T00:38:53;2.40;99.90
10702;DHT22;5402;50.004;8.246;2023-03-15T00:41:21;2.40;99.90
10702;DHT22;5402;50.004;8.246;2023-03-15T00:43:48;2.40;99.90
10702;DHT22;5402;50.004;8.246;2023-03-15T00:46:16;2.40;99.90
10702;DHT22;5402;50.004;8.246;2023-03-15T00:48:46;2.30;99.90
10702;DHT22;5402;50.004;8.246;2023-03-15T00:51:14;2.40;99.90
10702;DHT22;5402;50.004;8.246;2023-03-15T00:53:43;2.40;99.90
10702;DHT22;5402;50.004;8.246;2023-03-15T00:56:13;2.50;99.90
10702;DHT22;5402;50.004;8.246;2023-03-15T00:58:41;2.60;99.90
10702;DHT22;5402;50.004;8.246;2023-03-15T01:01:10;2.60;99.90
10702;DHT22;5402;50.004;8.246;2023-03-15T01:03:37;2.60;99.90
10702;DHT22;5402;50.004;8.246;2023-03-15T01:06:05;2.70;99.90
10702;DHT22;5402;50.004;8.246;2023-03-15T01:08:32;2.60;99.90
10702;DHT22;5402;50.004;8.246;2023-03-15T01:11:01;2.60;99.90
10702;DHT22;5402;50.004;8.246;2023-03-15T01:13:30;2.50;99.90
10702;DHT22;5402;50.004;8.246;2023-03-15T01:15:57;2.50;99.90
10702;DHT22;5402;50.004;8.246;2023-03-15T01:18:23;2.50;99.90
10702;DHT22;5402;50.004;8.246;2023-03-15T01:20:50;2.40;99.90
10702;DHT22;5402;50.004;8.246;2023-03-15T01:23:17;2.40;99.90
10702;DHT22;5402;50.004;8.246;2023-03-15T01:25:44;2.40;99.90
10702;DHT22;5402;50.004;8.246;2023-03-15T01:28:10;2.40;99.90
10702;DHT22;5402;50.004;8.246;2023-03-15T01:30:38;2.30;99.90
10702;DHT22;5402;50.004;8.246;2023-03-15T01:33:05;2.30;99.90
10702;DHT22;5402;50.004;8.246;2023-03-15T01:35:32;2.30;99.90
10702;DHT22;5402;50.004;8.246;2023-03-15T01:37:59;2.20;99.90
10702;DHT22;5402;50.004;8.246;2023-03-15T01:40:25;2.20;99.90
10702;DHT22;5402;50.004;8.246;2023-03-15T01:43:15;2.20;99.90
10702;DHT22;5402;50.004;8.246;2023-03-15T01:46:02;2.30;99.90
10702;DHT22;5402;50.004;8.246;2023-03-15T01:48:34;2.30;99.90
10702;DHT22;5402;50.004;8.246;2023-03-15T01:51:05;2.20;99.90
10702;DHT22;5402;50.004;8.246;2023-03-15T01:53:32;2.10;99.90
10702;DHT22;5402;50.004;8.246;2023-03-15T01:56:02;2.10;99.90
10702;DHT22;5402;50.004;8.246;2023-03-15T01:58:29;2.00;99.90
10702;DHT22;5402;50.004;8.246;2023-03-15T02:00:58;2.00;99.90
10702;DHT22;5402;50.004;8.246;2023-03-15T02:03:29;2.00;99.90
10702;DHT22;5402;50.004;8.246;2023-03-15T02:05:59;1.90;99.90
10702;DHT22;5402;50.004;8.246;2023-03-15T02:08:30;1.90;99.90
10702;DHT22;5402;50.004;8.246;2023-03-15T02:10:59;1.80;99.90
10702;DHT22;5402;50.004;8.246;2023-03-15T02:13:28;1.70;99.90
10702;DHT22;5402;50.004;8.246;2023-03-15T02:15:56;1.70;99.90
10702;DHT22;5402;50.004;8.246;2023-03-15T02:18:24;1.70;99.90
10702;DHT22;5402;50.004;8.246;2023-03-15T02:20:58;1.70;99.90
10702;DHT22;5402;50.004;8.246;2023-03-15T02:23:28;1.70;99.90
10702;DHT22;5402;50.004;8.246;2023-03-15T02:26:04;1.70;99.90
10702;DHT22;5402;50.004;8.246;2023-03-15T02:28:33;1.60;99.90
10702;DHT22;5402;50.004;8.246;2023-03-15T02:31:00;1.60;99.90
10702;DHT22;5402;50.004;8.246;2023-03-15T02:33:31;1.50;99.90
10702;DHT22;5402;50.004;8.246;2023-03-15T02:36:08;1.40;99.90
10702;DHT22;5402;50.004;8.246;2023-03-15T02:38:35;1.40;99.90
10702;DHT22;5402;50.004;8.246;2023-03-15T02:41:03;1.30;99.90
10702;DHT22;5402;50.004;8.246;2023-03-15T02:43:30;1.30;99.90
10702;DHT22;5402;50.004;8.246;2023-03-15T02:46:00;1.10;99.90
10702;DHT22;5402;50.004;8.246;2023-03-15T02:48:28;1.00;99.90
10702;DHT22;5402;50.004;8.246;2023-03-15T02:50:57;1.00;99.90
10702;DHT22;5402;50.004;8.246;2023-03-15T02:53:23;0.90;99.90
10702;DHT22;5402;50.004;8.246;2023-03-15T02:55:50;1.00;99.90
10702;DHT22;5402;50.004;8.246;2023-03-15T02:58:17;1.10;99.90
10702;DHT22;5402;50.004;8.246;2023-03-15T03:00:44;1.10;99.90
10702;DHT22;5402;50.004;8.246;2023-03-15T03:03:12;1.20;99.90
10702;DHT22;5402;50.004;8.246;2023-03-15T03:05:38;1.20;99.90
10702;DHT22;5402;50.004;8.246;2023-03-15T03:08:05;1.30;99.90
10702;DHT22;5402;50.004;8.246;2023-03-15T03:10:32;1.40;99.90
10702;DHT22;5402;50.004;8.246;2023-03-15T03:12:59;1.40;99.90
10702;DHT22;5402;50.004;8.246;2023-03-15T03:15:25;1.40;99.90
10702;DHT22;5402;50.004;8.246;2023-03-15T03:17:52;1.50;99.90
10702;DHT22;5402;50.004;8.246;2023-03-15T03:20:20;1.50;99.90
10702;DHT22;5402;50.004;8.246;2023-03-15T03:22:47;1.50;99.90
10702;DHT22;5402;50.004;8.246;2023-03-15T03:25:14;1.50;99.90
10702;DHT22;5402;50.004;8.246;2023-03-15T03:27:40;1.60;99.90
10702;DHT22;5402;50.004;8.246;2023-03-15T03:30:11;1.60;99.90
10702;DHT22;5402;50.004;8.246;2023-03-15T03:32:38;1.60;99.90
10702;DHT22;5402;50.004;8.246;2023-03-15T03:35:06;1.60;99.90
10702;DHT22;5402;50.004;8.246;2023-03-15T03:37:34;1.50;99.90
10702;DHT22;5402;50.004;8.246;2023-03-15T03:40:01;1.50;99.90
10702;DHT22;5402;50.004;8.246;2023-03-15T03:42:31;1.50;99.90
10702;DHT22;5402;50.004;8.246;2023-03-15T03:44:58;1.50;99.90
10702;DHT22;5402;50.004;8.246;2023-03-15T03:47:24;1.50;99.90
10702;DHT22;5402;50.004;8.246;2023-03-15T03:49:51;1.60;99.90
10702;DHT22;5402;50.004;8.246;2023-03-15T03:52:18;1.60;99.90
10702;DHT22;5402;50.004;8.246;2023-03-15T03:54:46;1.50;99.90
10702;DHT22;5402;50.004;8.246;2023-03-15T03:57:13;1.50;99.90
10702;DHT22;5402;50.004;8.246;2023-03-15T03:59:40;1.40;99.90
10702;DHT22;5402;50.004;8.246;2023-03-15T04:02:07;1.40;99.90
10702;DHT22;5402;50.004;8.246;2023-03-15T04:04:34;1.50;99.90
10702;DHT22;5402;50.004;8.246;2023-03-15T04:07:01;1.40;99.90
10702;DHT22;5402;50.004;8.246;2023-03-15T04:09:28;1.40;99.90
10702;DHT22;5402;50.004;8.246;2023-03-15T04:11:56;1.40;99.90
10702;DHT22;5402;50.004;8.246;2023-03-15T04:14:23;1.40;99.90
10702;DHT22;5402;50.004;8.246;2023-03-15T04:16:51;1.50;99.90
10702;DHT22;5402;50.004;8.246;2023-03-15T04:19:19;1.50;99.90
10702;DHT22;5402;50.004;8.246;2023-03-15T04:21:45;1.50;99.90
10702;DHT22;5402;50.004;8.246;2023-03-15T04:24:13;1.50;99.90
10702;DHT22;5402;50.004;8.246;2023-03-15T04:26:40;1.50;99.90
10702;DHT22;5402;50.004;8.246;2023-03-15T04:29:09;1.50;99.90
10702;DHT22;5402;50.004;8.246;2023-03-15T04:31:38;1.40;99.90
10702;DHT22;5402;50.004;8.246;2023-03-15T04:34:07;1.40;99.90
10702;DHT22;5402;50.004;8.246;2023-03-15T04:36:34;1.40;99.90
10702;DHT22;5402;50.004;8.246;2023-03-15T04:39:01;1.50;99.90
10702;DHT22;5402;50.004;8.246;2023-03-15T04:41:32;1.50;99.90
10702;DHT22;5402;50.004;8.246;2023-03-15T04:44:00;1.60;99.90
10702;DHT22;5402;50.004;8.246;2023-03-15T04:46:29;1.60;99.90
10702;DHT22;5402;50.004;8.246;2023-03-15T04:48:56;1.60;99.90
10702;DHT22;5402;50.004;8.246;2023-03-15T04:51:23;1.60;99.90
10702;DHT22;5402;50.004;8.246;2023-03-15T04:53:50;1.60;99.90
10702;DHT22;5402;50.004;8.246;2023-03-15T04:56:17;1.70;99.90
10702;DHT22;5402;50.004;8.246;2023-03-15T04:58:43;1.70;99.90
10702;DHT22;5402;50.004;8.246;2023-03-15T05:01:10;1.70;99.90
10702;DHT22;5402;50.004;8.246;2023-03-15T05:03:39;1.70;99.90
10702;DHT22;5402;50.004;8.246;2023-03-15T05:06:07;1.70;99.90
10702;DHT22;5402;50.004;8.246;2023-03-15T05:08:34;1.80;99.90
10702;DHT22;5402;50.004;8.246;2023-03-15T05:11:01;1.80;99.90
10702;DHT22;5402;50.004;8.246;2023-03-15T05:13:28;1.80;99.90
10702;DHT22;5402;50.004;8.246;2023-03-15T05:15:55;1.90;99.90
10702;DHT22;5402;50.004;8.246;2023-03-15T05:18:22;1.90;99.90
10702;DHT22;5402;50.004;8.246;2023-03-15T05:20:50;1.90;99.90
10702;DHT22;5402;50.004;8.246;2023-03-15T05:23:16;2.00;99.90
10702;DHT22;5402;50.004;8.246;2023-03-15T05:25:49;2.00;99.90
10702;DHT22;5402;50.004;8.246;2023-03-15T05:28:18;2.00;99.90
10702;DHT22;5402;50.004;8.246;2023-03-15T05:30:45;2.00;99.90
10702;DHT22;5402;50.004;8.246;2023-03-15T05:33:12;2.00;99.90
10702;DHT22;5402;50.004;8.246;2023-03-15T05:35:39;2.10;99.90
10702;DHT22;5402;50.004;8.246;2023-03-15T05:38:07;2.10;99.90
10702;DHT22;5402;50.004;8.246;2023-03-15T05:40:33;2.20;99.90
10702;DHT22;5402;50.004;8.246;2023-03-15T05:43:00;2.20;99.90
10702;DHT22;5402;50.004;8.246;2023-03-15T05:45:27;2.20;99.90
10702;DHT22;5402;50.004;8.246;2023-03-15T05:47:54;2.30;99.90
10702;DHT22;5402;50.004;8.246;2023-03-15T05:50:20;2.30;99.90
10702;DHT22;5402;50.004;8.246;2023-03-15T05:52:49;2.30;99.90
10702;DHT22;5402;50.004;8.246;2023-03-15T05:55:17;2.30;99.90
10702;DHT22;5402;50.004;8.246;2023-03-15T05:57:44;2.30;99.90
10702;DHT22;5402;50.004;8.246;2023-03-15T06:00:12;2.30;99.90
10702;DHT22;5402;50.004;8.246;2023-03-15T06:02:39;2.40;99.90
10702;DHT22;5402;50.004;8.246;2023-03-15T06:05:07;2.40;99.90
10702;DHT22;5402;50.004;8.246;2023-03-15T06:07:33;2.40;99.90
10702;DHT22;5402;50.004;8.246;2023-03-15T06:10:00;2.50;99.90
10702;DHT22;5402;50.004;8.246;2023-03-15T06:12:28;2.50;99.90
10702;DHT22;5402;50.004;8.246;2023-03-15T06:14:55;2.50;99.90
10702;DHT22;5402;50.004;8.246;2023-03-15T06:17:22;2.50;99.90
10702;DHT22;5402;50.004;8.246;2023-03-15T06:19:49;2.50;99.90
10702;DHT22;5402;50.004;8.246;2023-03-15T06:22:16;2.50;99.90
10702;DHT22;5402;50.004;8.246;2023-03-15T06:24:45;2.60;99.90
10702;DHT22;5402;50.004;8.246;2023-03-15T06:27:12;2.60;99.90
10702;DHT22;5402;50.004;8.246;2023-03-15T06:29:40;2.60;99.90
10702;DHT22;5402;50.004;8.246;2023-03-15T06:32:07;2.60;99.90
10702;DHT22;5402;50.004;8.246;2023-03-15T06:34:34;2.60;99.90
10702;DHT22;5402;50.004;8.246;2023-03-15T06:37:01;2.60;99.90
10702;DHT22;5402;50.004;8.246;2023-03-15T06:39:29;2.50;99.90
10702;DHT22;5402;50.004;8.246;2023-03-15T06:41:58;2.60;99.90
10702;DHT22;5402;50.004;8.246;2023-03-15T06:44:26;2.60;99.90
10702;DHT22;5402;50.004;8.246;2023-03-15T06:46:55;2.60;99.90
10702;DHT22;5402;50.004;8.246;2023-03-15T06:49:22;2.70;99.90
10702;DHT22;5402;50.004;8.246;2023-03-15T06:51:50;2.80;99.90
10702;DHT22;5402;50.004;8.246;2023-03-15T06:54:17;2.70;99.90
10702;DHT22;5402;50.004;8.246;2023-03-15T06:56:44;2.80;99.90
10702;DHT22;5402;50.004;8.246;2023-03-15T06:59:11;2.70;99.90
10702;DHT22;5402;50.004;8.246;2023-03-15T07:01:37;2.80;99.90
10702;DHT22;5402;50.004;8.246;2023-03-15T07:04:19;2.70;99.90
10702;DHT22;5402;50.004;8.246;2023-03-15T07:06:46;2.70;99.90
10702;DHT22;5402;50.004;8.246;2023-03-15T07:09:13;2.70;99.90
10702;DHT22;5402;50.004;8.246;2023-03-15T07:11:40;2.70;99.90
10702;DHT22;5402;50.004;8.246;2023-03-15T07:14:07;2.80;99.90
10702;DHT22;5402;50.004;8.246;2023-03-15T07:16:34;2.90;99.90
10702;DHT22;5402;50.004;8.246;2023-03-15T07:19:01;2.90;99.90
10702;DHT22;5402;50.004;8.246;2023-03-15T07:21:29;3.00;99.90
10702;DHT22;5402;50.004;8.246;2023-03-15T07:23:56;2.90;99.90
10702;DHT22;5402;50.004;8.246;2023-03-15T07:26:22;2.90;99.90
10702;DHT22;5402;50.004;8.246;2023-03-15T07:28:49;3.00;99.90
10702;DHT22;5402;50.004;8.246;2023-03-15T07:31:16;3.10;99.90
10702;DHT22;5402;50.004;8.246;2023-03-15T07:33:43;3.10;99.90
10702;DHT22;5402;50.004;8.246;2023-03-15T07:36:10;3.20;99.90
10702;DHT22;5402;50.004;8.246;2023-03-15T07:38:38;3.30;99.90
10702;DHT22;5402;50.004;8.246;2023-03-15T07:41:06;3.40;99.90
10702;DHT22;5402;50.004;8.246;2023-03-15T07:43:33;3.40;99.90
10702;DHT22;5402;50.004;8.246;2023-03-15T07:46:00;3.40;99.90
10702;DHT22;5402;50.004;8.246;2023-03-15T07:48:27;3.40;99.90
10702;DHT22;5402;50.004;8.246;2023-03-15T07:50:54;3.40;99.90
10702;DHT22;5402;50.004;8.246;2023-03-15T07:53:21;3.40;99.90
10702;DHT22;5402;50.004;8.246;2023-03-15T07:55:49;3.40;99.90
10702;DHT22;5402;50.004;8.246;2023-03-15T07:58:16;3.40;99.90
10702;DHT22;5402;50.004;8.246;2023-03-15T08:00:43;3.50;99.90
10702;DHT22;5402;50.004;8.246;2023-03-15T08:03:10;3.60;99.90
10702;DHT22;5402;50.004;8.246;2023-03-15T08:05:36;3.60;99.90
10702;DHT22;5402;50.004;8.246;2023-03-15T08:08:03;3.50;99.90
10702;DHT22;5402;50.004;8.246;2023-03-15T08:10:30;3.50;99.90
10702;DHT22;5402;50.004;8.246;2023-03-15T08:12:58;3.40;99.90
10702;DHT22;5402;50.004;8.246;2023-03-15T08:15:25;3.50;99.90
10702;DHT22;5402;50.004;8.246;2023-03-15T08:17:52;3.70;99.90
10702;DHT22;5402;50.004;8.246;2023-03-15T08:20:19;3.70;99.90
10702;DHT22;5402;50.004;8.246;2023-03-15T08:22:47;3.70;99.90
10702;DHT22;5402;50.004;8.246;2023-03-15T08:25:16;3.70;99.90
10702;DHT22;5402;50.004;8.246;2023-03-15T08:27:43;3.70;99.90
10702;DHT22;5402;50.004;8.246;2023-03-15T08:30:12;3.80;99.90
10702;DHT22;5402;50.004;8.246;2023-03-15T08:32:40;4.00;99.90
10702;DHT22;5402;50.004;8.246;2023-03-15T08:35:08;4.10;99.90
10702;DHT22;5402;50.004;8.246;2023-03-15T08:37:37;4.10;99.90
10702;DHT22;5402;50.004;8.246;2023-03-15T08:40:05;4.10;99.90
10702;DHT22;5402;50.004;8.246;2023-03-15T08:42:34;4.20;99.90
10702;DHT22;5402;50.004;8.246;2023-03-15T08:45:01;4.00;99.90
10702;DHT22;5402;50.004;8.246;2023-03-15T08:47:29;4.00;99.90
10702;DHT22;5402;50.004;8.246;2023-03-15T08:49:56;4.00;99.90
10702;DHT22;5402;50.004;8.246;2023-03-15T08:52:23;4.00;99.90
10702;DHT22;5402;50.004;8.246;2023-03-15T08:54:49;3.90;99.90
10702;DHT22;5402;50.004;8.246;2023-03-15T08:57:16;3.80;99.90
10702;DHT22;5402;50.004;8.246;2023-03-15T08:59:43;3.90;99.90
10702;DHT22;5402;50.004;8.246;2023-03-15T09:02:10;4.00;99.90
10702;DHT22;5402;50.004;8.246;2023-03-15T09:04:40;4.10;99.90
10702;DHT22;5402;50.004;8.246;2023-03-15T09:07:07;4.20;99.90
10702;DHT22;5402;50.004;8.246;2023-03-15T09:09:37;4.30;99.90
10702;DHT22;5402;50.004;8.246;2023-03-15T09:12:04;4.40;99.90
10702;DHT22;5402;50.004;8.246;2023-03-15T09:14:31;4.50;99.90
10702;DHT22;5402;50.004;8.246;2023-03-15T09:17:06;4.60;99.90
10702;DHT22;5402;50.004;8.246;2023-03-15T09:19:33;4.40;99.90
10702;DHT22;5402;50.004;8.246;2023-03-15T09:22:01;4.60;99.90
10702;DHT22;5402;50.004;8.246;2023-03-15T09:24:28;4.70;99.90
10702;DHT22;5402;50.004;8.246;2023-03-15T09:26:55;4.70;99.90
10702;DHT22;5402;50.004;8.246;2023-03-15T09:29:23;4.90;99.90
10702;DHT22;5402;50.004;8.246;2023-03-15T09:31:50;4.90;99.90
10702;DHT22;5402;50.004;8.246;2023-03-15T09:34:17;4.80;99.90
10702;DHT22;5402;50.004;8.246;2023-03-15T09:36:44;4.90;99.90
10702;DHT22;5402;50.004;8.246;2023-03-15T09:39:18;5.00;99.90
10702;DHT22;5402;50.004;8.246;2023-03-15T09:41:48;5.30;99.90
10702;DHT22;5402;50.004;8.246;2023-03-15T09:44:24;5.50;99.90
10702;DHT22;5402;50.004;8.246;2023-03-15T09:47:09;6.00;99.90
10702;DHT22;5402;50.004;8.246;2023-03-15T09:49:41;6.20;99.90
10702;DHT22;5402;50.004;8.246;2023-03-15T09:52:25;6.30;99.90
10702;DHT22;5402;50.004;8.246;2023-03-15T09:54:57;6.00;99.90
10702;DHT22;5402;50.004;8.246;2023-03-15T09:57:34;5.80;99.90
10702;DHT22;5402;50.004;8.246;2023-03-15T10:00:04;5.60;99.90
10702;DHT22;5402;50.004;8.246;2023-03-15T10:02:38;5.30;99.90
10702;DHT22;5402;50.004;8.246;2023-03-15T10:05:11;5.40;99.90
10702;DHT22;5402;50.004;8.246;2023-03-15T10:07:40;5.40;99.90
10702;DHT22;5402;50.004;8.246;2023-03-15T10:10:15;5.20;99.90
10702;DHT22;5402;50.004;8.246;2023-03-15T10:12:46;5.20;99.90
10702;DHT22;5402;50.004;8.246;2023-03-15T10:15:24;5.10;99.90
10702;DHT22;5402;50.004;8.246;2023-03-15T10:18:04;5.00;99.90
10702;DHT22;5402;50.004;8.246;2023-03-15T10:20:39;5.10;99.90
10702;DHT22;5402;50.004;8.246;2023-03-15T10:23:11;5.20;99.90
10702;DHT22;5402;50.004;8.246;2023-03-15T10:25:43;5.10;99.90
10702;DHT22;5402;50.004;8.246;2023-03-15T10:28:13;5.10;99.90
10702;DHT22;5402;50.004;8.246;2023-03-15T10:30:46;5.10;99.90
10702;DHT22;5402;50.004;8.246;2023-03-15T10:33:15;5.10;99.90
10702;DHT22;5402;50.004;8.246;2023-03-15T10:35:43;5.10;99.90
10702;DHT22;5402;50.004;8.246;2023-03-15T10:38:14;5.10;99.90
10702;DHT22;5402;50.004;8.246;2023-03-15T10:40:44;5.00;99.90
10702;DHT22;5402;50.004;8.246;2023-03-15T10:43:16;4.90;99.90
10702;DHT22;5402;50.004;8.246;2023-03-15T10:45:46;5.10;99.90
10702;DHT22;5402;50.004;8.246;2023-03-15T10:48:13;5.30;99.90
10702;DHT22;5402;50.004;8.246;2023-03-15T10:50:40;5.50;99.90
10702;DHT22;5402;50.004;8.246;2023-03-15T10:53:08;5.70;99.90
10702;DHT22;5402;50.004;8.246;2023-03-15T10:55:42;5.80;99.90
10702;DHT22;5402;50.004;8.246;2023-03-15T10:58:20;6.10;99.90
10702;DHT22;5402;50.004;8.246;2023-03-15T11:00:50;6.40;99.90
10702;DHT22;5402;50.004;8.246;2023-03-15T11:03:18;6.70;99.90
10702;DHT22;5402;50.004;8.246;2023-03-15T11:05:47;7.10;99.90
10702;DHT22;5402;50.004;8.246;2023-03-15T11:08:16;7.10;99.90
10702;DHT22;5402;50.004;8.246;2023-03-15T11:10:44;7.50;99.90
10702;DHT22;5402;50.004;8.246;2023-03-15T11:13:16;7.60;99.90
10702;DHT22;5402;50.004;8.246;2023-03-15T11:15:48;7.30;99.90
10702;DHT22;5402;50.004;8.246;2023-03-15T11:18:19;6.90;99.90
10702;DHT22;5402;50.004;8.246;2023-03-15T11:20:50;6.80;99.90
10702;DHT22;5402;50.004;8.246;2023-03-15T11:23:22;6.80;99.90
10702;DHT22;5402;50.004;8.246;2023-03-15T11:25:51;6.70;99.90
10702;DHT22;5402;50.004;8.246;2023-03-15T11:28:22;6.50;99.90
10702;DHT22;5402;50.004;8.246;2023-03-15T11:30:50;6.40;99.90
10702;DHT22;5402;50.004;8.246;2023-03-15T11:33:28;6.10;99.90
10702;DHT22;5402;50.004;8.246;2023-03-15T11:35:59;6.10;99.90
10702;DHT22;5402;50.004;8.246;2023-03-15T11:38:30;6.00;99.90
10702;DHT22;5402;50.004;8.246;2023-03-15T11:40:59;6.30;99.90
10702;DHT22;5402;50.004;8.246;2023-03-15T11:43:37;6.20;99.90
10702;DHT22;5402;50.004;8.246;2023-03-15T11:46:09;6.00;99.90
10702;DHT22;5402;50.004;8.246;2023-03-15T11:48:43;5.70;99.90
10702;DHT22;5402;50.004;8.246;2023-03-15T11:51:13;5.40;99.90
10702;DHT22;5402;50.004;8.246;2023-03-15T11:53:43;5.00;99.90
10702;DHT22;5402;50.004;8.246;2023-03-15T11:56:23;4.80;99.90
10702;DHT22;5402;50.004;8.246;2023-03-15T11:59:05;4.80;99.90
10702;DHT22;5402;50.004;8.246;2023-03-15T12:01:34;4.90;99.90
10702;DHT22;5402;50.004;8.246;2023-03-15T12:07:28;5.10;99.90
10702;DHT22;5402;50.004;8.246;2023-03-15T12:09:56;5.30;99.90
10702;DHT22;5402;50.004;8.246;2023-03-15T12:12:36;5.40;99.90
10702;DHT22;5402;50.004;8.246;2023-03-15T12:15:14;5.50;99.90
10702;DHT22;5402;50.004;8.246;2023-03-15T12:18:04;5.80;99.90
10702;DHT22;5402;50.004;8.246;2023-03-15T12:20:34;5.80;99.90
10702;DHT22;5402;50.004;8.246;2023-03-15T12:23:18;6.10;99.90
10702;DHT22;5402;50.004;8.246;2023-03-15T12:25:51;6.40;99.90
10702;DHT22;5402;50.004;8.246;2023-03-15T12:28:22;6.50;99.90
10702;DHT22;5402;50.004;8.246;2023-03-15T12:30:53;6.70;99.90
10702;DHT22;5402;50.004;8.246;2023-03-15T12:33:23;6.80;99.90
10702;DHT22;5402;50.004;8.246;2023-03-15T12:35:58;6.90;99.90
10702;DHT22;5402;50.004;8.246;2023-03-15T12:38:31;7.10;99.90
10702;DHT22;5402;50.004;8.246;2023-03-15T12:41:05;7.30;99.90
10702;DHT22;5402;50.004;8.246;2023-03-15T12:43:38;7.30;99.90
10702;DHT22;5402;50.004;8.246;2023-03-15T12:46:05;7.20;99.90
10702;DHT22;5402;50.004;8.246;2023-03-15T12:48:34;7.20;99.90
10702;DHT22;5402;50.004;8.246;2023-03-15T12:51:09;6.80;99.90
10702;DHT22;5402;50.004;8.246;2023-03-15T12:53:45;6.80;99.90
10702;DHT22;5402;50.004;8.246;2023-03-15T12:56:32;6.80;99.90
10702;DHT22;5402;50.004;8.246;2023-03-15T12:59:09;6.90;99.90
10702;DHT22;5402;50.004;8.246;2023-03-15T13:01:39;6.70;99.90
10702;DHT22;5402;50.004;8.246;2023-03-15T13:04:09;6.60;99.90
10702;DHT22;5402;50.004;8.246;2023-03-15T13:06:49;6.70;99.90
10702;DHT22;5402;50.004;8.246;2023-03-15T13:09:26;6.90;99.90
10702;DHT22;5402;50.004;8.246;2023-03-15T13:12:00;7.10;99.90
10702;DHT22;5402;50.004;8.246;2023-03-15T13:14:38;7.50;99.90
10702;DHT22;5402;50.004;8.246;2023-03-15T13:17:17;7.60;99.90
10702;DHT22;5402;50.004;8.246;2023-03-15T13:19:50;7.60;99.90
10702;DHT22;5402;50.004;8.246;2023-03-15T13:22:26;7.50;99.90
10702;DHT22;5402;50.004;8.246;2023-03-15T13:24:58;7.40;99.90
10702;DHT22;5402;50.004;8.246;2023-03-15T13:27:37;7.50;99.90
10702;DHT22;5402;50.004;8.246;2023-03-15T13:30:26;7.70;99.90
10702;DHT22;5402;50.004;8.246;2023-03-15T13:33:05;7.70;99.90
10702;DHT22;5402;50.004;8.246;2023-03-15T13:35:41;8.00;99.90
10702;DHT22;5402;50.004;8.246;2023-03-15T13:38:24;8.00;99.90
10702;DHT22;5402;50.004;8.246;2023-03-15T13:40:51;8.00;99.90
10702;DHT22;5402;50.004;8.246;2023-03-15T13:43:18;7.80;99.90
10702;DHT22;5402;50.004;8.246;2023-03-15T13:45:45;7.90;99.90
10702;DHT22;5402;50.004;8.246;2023-03-15T13:48:11;8.10;99.90
10702;DHT22;5402;50.004;8.246;2023-03-15T13:50:40;8.20;99.90
10702;DHT22;5402;50.004;8.246;2023-03-15T13:53:09;8.30;99.90
10702;DHT22;5402;50.004;8.246;2023-03-15T13:55:38;8.30;99.90
10702;DHT22;5402;50.004;8.246;2023-03-15T13:58:06;8.20;99.90
10702;DHT22;5402;50.004;8.246;2023-03-15T14:00:35;8.10;99.90
10702;DHT22;5402;50.004;8.246;2023-03-15T14:03:05;7.90;99.90
10702;DHT22;5402;50.004;8.246;2023-03-15T14:05:33;7.50;99.90
10702;DHT22;5402;50.004;8.246;2023-03-15T14:08:18;7.30;99.90
10702;DHT22;5402;50.004;8.246;2023-03-15T14:10:57;7.20;99.90
10702;DHT22;5402;50.004;8.246;2023-03-15T14:13:26;7.00;99.90
10702;DHT22;5402;50.004;8.246;2023-03-15T14:15:59;7.20;99.90
10702;DHT22;5402;50.004;8.246;2023-03-15T14:18:30;7.20;99.90
10702;DHT22;5402;50.004;8.246;2023-03-15T14:20:59;7.20;99.90
10702;DHT22;5402;50.004;8.246;2023-03-15T14:23:30;7.10;99.90
10702;DHT22;5402;50.004;8.246;2023-03-15T14:26:05;7.10;99.90
10702;DHT22;5402;50.004;8.246;2023-03-15T14:28:32;7.10;99.90
10702;DHT22;5402;50.004;8.246;2023-03-15T14:30:59;7.20;99.90
10702;DHT22;5402;50.004;8.246;2023-03-15T14:33:31;7.40;99.90
10702;DHT22;5402;50.004;8.246;2023-03-15T14:36:00;7.50;99.90
10702;DHT22;5402;50.004;8.246;2023-03-15T14:38:34;7.50;99.90
10702;DHT22;5402;50.004;8.246;2023-03-15T14:41:17;7.70;99.90
10702;DHT22;5402;50.004;8.246;2023-03-15T14:43:45;7.70;99.90
10702;DHT22;5402;50.004;8.246;2023-03-15T14:46:11;7.70;99.90
10702;DHT22;5402;50.004;8.246;2023-03-15T14:48:38;7.80;99.90
10702;DHT22;5402;50.004;8.246;2023-03-15T14:51:05;8.00;99.90
10702;DHT22;5402;50.004;8.246;2023-03-15T14:53:36;8.10;99.90
10702;DHT22;5402;50.004;8.246;2023-03-15T14:56:03;8.10;99.90
10702;DHT22;5402;50.004;8.246;2023-03-15T14:58:30;8.20;99.90
10702;DHT22;5402;50.004;8.246;2023-03-15T15:00:57;8.10;99.90
10702;DHT22;5402;50.004;8.246;2023-03-15T15:03:30;8.10;99.90
10702;DHT22;5402;50.004;8.246;2023-03-15T15:05:57;8.00;99.90
10702;DHT22;5402;50.004;8.246;2023-03-15T15:08:25;7.80;99.90
10702;DHT22;5402;50.004;8.246;2023-03-15T15:10:55;7.90;99.90
10702;DHT22;5402;50.004;8.246;2023-03-15T15:13:23;8.00;99.90
10702;DHT22;5402;50.004;8.246;2023-03-15T15:15:51;8.00;99.90
10702;DHT22;5402;50.004;8.246;2023-03-15T15:18:18;8.00;99.90
10702;DHT22;5402;50.004;8.246;2023-03-15T15:20:45;8.00;99.90
10702;DHT22;5402;50.004;8.246;2023-03-15T15:23:17;8.00;99.90
10702;DHT22;5402;50.004;8.246;2023-03-15T15:25:45;8.00;99.90
10702;DHT22;5402;50.004;8.246;2023-03-15T15:28:14;7.90;99.90
10702;DHT22;5402;50.004;8.246;2023-03-15T15:30:41;7.90;99.90
10702;DHT22;5402;50.004;8.246;2023-03-15T15:33:07;7.90;99.90
10702;DHT22;5402;50.004;8.246;2023-03-15T15:35:34;7.60;99.90
10702;DHT22;5402;50.004;8.246;2023-03-15T15:38:01;7.70;99.90
10702;DHT22;5402;50.004;8.246;2023-03-15T15:40:31;7.70;99.90
10702;DHT22;5402;50.004;8.246;2023-03-15T15:43:01;7.80;99.90
10702;DHT22;5402;50.004;8.246;2023-03-15T15:45:29;7.70;99.90
10702;DHT22;5402;50.004;8.246;2023-03-15T15:47:58;7.50;99.90
10702;DHT22;5402;50.004;8.246;2023-03-15T15:50:30;7.60;99.90
10702;DHT22;5402;50.004;8.246;2023-03-15T15:52:59;7.60;99.90
10702;DHT22;5402;50.004;8.246;2023-03-15T15:55:29;7.50;99.90
10702;DHT22;5402;50.004;8.246;2023-03-15T15:57:57;7.50;99.90
10702;DHT22;5402;50.004;8.246;2023-03-15T16:00:25;7.30;99.90
10702;DHT22;5402;50.004;8.246;2023-03-15T16:02:55;7.30;99.90
10702;DHT22;5402;50.004;8.246;2023-03-15T16:05:23;7.30;99.90
10702;DHT22;5402;50.004;8.246;2023-03-15T16:07:51;7.30;99.90
10702;DHT22;5402;50.004;8.246;2023-03-15T16:10:20;7.20;99.90
10702;DHT22;5402;50.004;8.246;2023-03-15T16:12:48;7.20;99.90
10702;DHT22;5402;50.004;8.246;2023-03-15T16:15:16;7.10;99.90
10702;DHT22;5402;50.004;8.246;2023-03-15T16:17:44;7.10;99.90
10702;DHT22;5402;50.004;8.246;2023-03-15T16:20:14;7.10;99.90